< < Back
Terminal Aerodrome Forecast


Current Version              Previous Versions:   1  2  3  4  5  6  7  8  9  

Terminal Aerodrome Forecast

533
FTUS42 KFFC 242300
TAFAHN
TAF
KAHN 242332Z 2500/2524 14005KT P6SM SCT070 SCT250
     FM250900 18006KT P6SM BKN050
     FM251200 21009KT P6SM SCT025 BKN050
     FM251500 22010G18KT P6SM BKN025
     FM251800 25012G20KT P6SM SCT040=

Latest METAR

686
SAUS70 KWBC 250100
MTRAHN
METAR KAHN 250051Z AUTO 10005KT 10SM CLR 18/11 A2992 RMK AO2 SLP130
T01830111


USA.gov is the U.S. government's official web portal to all federal, state and local government web resources and services.